createdAt,value
2022-11-27T00:00:59.935Z,10.00
2022-11-27T00:03:27.043Z,11.13
2022-11-27T00:05:55.502Z,11.43
2022-11-27T00:08:23.121Z,9.80
2022-11-27T00:10:49.899Z,11.53
2022-11-27T00:13:16.796Z,10.03
2022-11-27T00:15:45.133Z,10.60
2022-11-27T00:18:12.097Z,9.37
2022-11-27T00:20:38.950Z,10.73
2022-11-27T00:23:06.109Z,10.50
2022-11-27T00:25:32.878Z,10.40
2022-11-27T00:27:59.651Z,10.30
2022-11-27T00:30:26.518Z,9.80
2022-11-27T00:32:54.663Z,9.13
2022-11-27T00:35:21.439Z,9.77
2022-11-27T00:37:48.261Z,9.70
2022-11-27T00:40:15.739Z,9.88
2022-11-27T00:42:42.506Z,11.27
2022-11-27T00:45:10.375Z,10.30
2022-11-27T00:47:37.141Z,10.57
2022-11-27T00:50:06.799Z,9.43
2022-11-27T00:52:33.738Z,8.98
2022-11-27T00:55:00.525Z,9.13
2022-11-27T00:57:27.363Z,8.90
2022-11-27T00:59:54.224Z,8.13
2022-11-27T01:02:21.055Z,9.20
2022-11-27T01:04:48.360Z,8.13
2022-11-27T01:07:16.984Z,8.97
2022-11-27T01:09:43.909Z,8.13
2022-11-27T01:12:10.678Z,8.48
2022-11-27T01:14:38.596Z,9.30
2022-11-27T01:17:05.854Z,9.07
2022-11-27T01:19:32.661Z,8.70
2022-11-27T01:21:59.442Z,8.70
2022-11-27T01:24:27.553Z,9.10
2022-11-27T01:26:54.424Z,8.63
2022-11-27T01:29:21.249Z,9.65
2022-11-27T01:31:48.166Z,9.48
2022-11-27T01:34:17.584Z,9.02
2022-11-27T01:36:45.188Z,9.10
2022-11-27T01:39:15.355Z,9.37
2022-11-27T01:41:43.943Z,8.98
2022-11-27T01:44:48.714Z,9.23
2022-11-27T01:49:48.906Z,9.27
2022-11-27T01:52:20.122Z,8.80
2022-11-27T01:54:53.128Z,7.55
2022-11-27T01:57:25.385Z,9.18
2022-11-27T01:59:54.749Z,7.63
2022-11-27T02:02:21.649Z,8.60
2022-11-27T02:04:48.795Z,8.53
2022-11-27T02:07:16.084Z,9.23
2022-11-27T02:09:43.001Z,9.30
2022-11-27T02:12:25.383Z,9.07
2022-11-27T02:15:02.937Z,8.27
2022-11-27T02:17:38.251Z,7.97
2022-11-27T02:20:19.651Z,8.43
2022-11-27T02:23:06.072Z,7.43
2022-11-27T02:25:45.439Z,8.35
2022-11-27T02:28:29.813Z,8.20
2022-11-27T02:31:06.204Z,7.70
2022-11-27T02:33:39.534Z,8.10
2022-11-27T02:36:11.773Z,7.93
2022-11-27T02:38:43.227Z,7.63
2022-11-27T02:41:14.333Z,7.72
2022-11-27T02:43:45.254Z,7.43
2022-11-27T02:46:15.113Z,6.95
2022-11-27T02:48:45.923Z,7.57
2022-11-27T02:51:15.523Z,7.83
2022-11-27T02:53:47.244Z,7.63
2022-11-27T02:56:19.152Z,6.75
2022-11-27T02:58:47.911Z,6.83
2022-11-27T03:01:20.396Z,5.73
2022-11-27T03:03:51.244Z,6.15
2022-11-27T03:06:22.720Z,6.32
2022-11-27T03:08:55.710Z,6.78
2022-11-27T03:11:23.169Z,6.53
2022-11-27T03:13:53.528Z,6.20
2022-11-27T03:16:33.584Z,5.67
2022-11-27T03:19:09.000Z,5.63
2022-11-27T03:21:39.619Z,5.38
2022-11-27T03:24:07.761Z,5.00
2022-11-27T03:26:34.933Z,5.60
2022-11-27T03:29:05.035Z,6.00
2022-11-27T03:31:33.595Z,5.53
2022-11-27T03:34:00.940Z,5.20
2022-11-27T03:36:27.810Z,5.18
2022-11-27T03:38:55.751Z,5.43
2022-11-27T03:41:34.008Z,5.93
2022-11-27T03:44:10.369Z,6.03
2022-11-27T03:46:53.660Z,5.93
2022-11-27T03:49:32.193Z,6.25
2022-11-27T03:52:07.656Z,5.68
2022-11-27T03:54:44.427Z,5.53
2022-11-27T03:57:18.127Z,6.10
2022-11-27T03:59:47.356Z,6.70
2022-11-27T04:02:17.879Z,6.63
2022-11-27T04:04:44.856Z,6.63
2022-11-27T04:07:17.311Z,6.67
2022-11-27T04:09:44.126Z,6.97
2022-11-27T04:12:10.896Z,5.53
2022-11-27T04:14:37.752Z,6.15
2022-11-27T04:17:04.692Z,7.00
2022-11-27T04:19:32.902Z,6.50
2022-11-27T04:21:59.666Z,6.63
2022-11-27T04:24:26.454Z,6.80
2022-11-27T04:26:53.199Z,7.50
2022-11-27T04:29:20.096Z,5.63
2022-11-27T04:31:47.088Z,5.20
2022-11-27T04:34:13.911Z,6.30
2022-11-27T04:36:42.561Z,5.60
2022-11-27T04:39:09.398Z,6.27
2022-11-27T04:41:36.210Z,6.37
2022-11-27T04:44:03.060Z,6.37
2022-11-27T04:46:29.963Z,6.37
2022-11-27T04:48:56.873Z,5.37
2022-11-27T04:51:24.868Z,5.70
2022-11-27T04:53:53.022Z,5.60
2022-11-27T04:56:20.082Z,5.50
2022-11-27T04:58:46.832Z,5.23
2022-11-27T05:01:14.239Z,5.65
2022-11-27T05:03:41.267Z,6.00
2022-11-27T05:06:08.533Z,5.55
2022-11-27T05:08:35.371Z,5.60
2022-11-27T05:11:06.126Z,5.27
2022-11-27T05:13:33.644Z,6.13
2022-11-27T05:16:00.592Z,5.33
2022-11-27T05:18:27.568Z,4.90
2022-11-27T05:20:58.340Z,5.40
2022-11-27T05:23:25.458Z,5.43
2022-11-27T05:25:52.735Z,6.20
2022-11-27T05:28:26.416Z,5.00
2022-11-27T05:30:54.296Z,5.37
2022-11-27T05:33:21.239Z,5.47
2022-11-27T05:35:48.075Z,5.27
2022-11-27T05:38:14.859Z,5.07
2022-11-27T05:40:41.865Z,5.07
2022-11-27T05:43:08.613Z,4.73
2022-11-27T05:45:37.404Z,5.93
2022-11-27T05:48:04.597Z,4.87
2022-11-27T05:50:31.441Z,5.10
2022-11-27T05:52:58.261Z,5.30
2022-11-27T05:55:25.102Z,5.47
2022-11-27T05:57:51.878Z,5.43
2022-11-27T06:00:19.066Z,5.20
2022-11-27T06:02:47.405Z,6.00
2022-11-27T06:05:14.636Z,5.27
2022-11-27T06:07:41.498Z,5.47
2022-11-27T06:10:09.061Z,5.07
2022-11-27T06:12:35.925Z,5.28
2022-11-27T06:15:03.455Z,5.80
2022-11-27T06:17:30.353Z,5.73
2022-11-27T06:19:58.527Z,5.77
2022-11-27T06:22:25.319Z,5.83
2022-11-27T06:24:52.105Z,6.33
2022-11-27T06:27:18.922Z,6.20
2022-11-27T06:29:45.702Z,6.23
2022-11-27T06:32:12.602Z,6.83
2022-11-27T06:34:39.810Z,5.00
2022-11-27T06:37:12.850Z,6.57
2022-11-27T06:39:40.057Z,5.53
2022-11-27T06:42:06.940Z,5.83
2022-11-27T06:44:33.749Z,5.88
2022-11-27T06:47:00.593Z,5.27
2022-11-27T06:49:27.383Z,6.43
2022-11-27T06:51:54.174Z,6.27
2022-11-27T06:54:22.598Z,5.60
2022-11-27T06:56:50.413Z,5.73
2022-11-27T06:59:18.010Z,5.77
2022-11-27T07:01:45.263Z,6.20
2022-11-27T07:04:14.229Z,5.60
2022-11-27T07:06:41.605Z,5.20
2022-11-27T07:09:08.916Z,5.23
2022-11-27T07:11:39.094Z,6.05
2022-11-27T07:14:06.895Z,6.30
2022-11-27T07:16:36.358Z,6.13
2022-11-27T07:19:05.213Z,6.10
2022-11-27T07:21:32.322Z,7.13
2022-11-27T07:24:02.461Z,5.90
2022-11-27T07:26:30.490Z,6.57
2022-11-27T07:28:58.843Z,5.60
2022-11-27T07:31:28.979Z,6.23
2022-11-27T07:33:56.569Z,7.17
2022-11-27T07:36:25.011Z,5.82
2022-11-27T07:38:52.152Z,6.53
2022-11-27T07:41:19.516Z,7.70
2022-11-27T07:43:46.957Z,6.33
2022-11-27T07:46:17.150Z,7.10
2022-11-27T07:48:44.566Z,7.00
2022-11-27T07:51:13.363Z,7.90
2022-11-27T07:53:41.198Z,7.67
2022-11-27T07:56:09.721Z,6.63
2022-11-27T07:58:37.065Z,7.00
2022-11-27T08:01:07.365Z,6.83
2022-11-27T08:03:35.801Z,6.53
2022-11-27T08:06:02.949Z,6.18
2022-11-27T08:08:29.733Z,7.80
2022-11-27T08:10:56.623Z,7.70
2022-11-27T08:13:23.404Z,6.13
2022-11-27T08:15:50.233Z,7.40
2022-11-27T08:18:17.030Z,6.10
2022-11-27T08:20:45.186Z,7.50
2022-11-27T08:23:11.982Z,6.73
2022-11-27T08:25:38.884Z,6.47
2022-11-27T08:28:05.759Z,6.95
2022-11-27T08:30:32.577Z,6.53
2022-11-27T08:32:59.409Z,6.20
2022-11-27T08:35:26.268Z,6.23
2022-11-27T08:37:54.509Z,7.43
2022-11-27T08:40:21.318Z,6.37
2022-11-27T08:42:48.189Z,7.93
2022-11-27T08:45:15.549Z,7.73
2022-11-27T08:47:43.501Z,6.23
2022-11-27T08:50:10.716Z,6.83
2022-11-27T08:52:37.676Z,6.43
2022-11-27T08:55:07.243Z,5.87
2022-11-27T08:57:34.075Z,6.63
2022-11-27T09:00:01.052Z,6.88
2022-11-27T09:02:27.853Z,6.38
2022-11-27T09:04:54.621Z,6.40
2022-11-27T09:07:21.663Z,6.57
2022-11-27T09:09:48.738Z,6.50
2022-11-27T09:12:16.968Z,5.90
2022-11-27T09:14:43.834Z,7.27
2022-11-27T09:17:10.766Z,6.20
2022-11-27T09:19:37.568Z,7.17
2022-11-27T09:22:04.406Z,6.20
2022-11-27T09:24:31.222Z,6.05
2022-11-27T09:26:58.029Z,6.40
2022-11-27T09:29:26.246Z,5.57
2022-11-27T09:31:53.088Z,5.43
2022-11-27T09:34:20.393Z,5.80
2022-11-27T09:36:47.257Z,7.20
2022-11-27T09:39:15.692Z,5.57
2022-11-27T09:41:46.830Z,6.72
2022-11-27T09:44:25.026Z,6.40
2022-11-27T09:46:57.579Z,6.13
2022-11-27T09:49:28.523Z,7.00
2022-11-27T09:52:00.287Z,5.80
2022-11-27T09:54:30.778Z,6.13
2022-11-27T09:56:59.105Z,6.10
2022-11-27T09:59:34.595Z,7.03
2022-11-27T10:02:02.951Z,5.37
2022-11-27T10:04:36.184Z,7.07
2022-11-27T10:07:28.677Z,6.57
2022-11-27T10:10:08.728Z,6.85
2022-11-27T10:12:46.812Z,7.00
2022-11-27T10:15:19.638Z,6.57
2022-11-27T10:17:53.897Z,6.82
2022-11-27T10:20:29.380Z,6.53
2022-11-27T10:23:04.224Z,7.20
2022-11-27T10:25:37.631Z,7.03
2022-11-27T10:28:17.796Z,6.28
2022-11-27T10:30:51.469Z,6.40
2022-11-27T10:33:25.516Z,7.35
2022-11-27T10:35:53.166Z,6.88
2022-11-27T10:38:22.775Z,6.43
2022-11-27T10:46:27.900Z,6.53
2022-11-27T10:48:56.405Z,6.32
2022-11-27T10:51:37.207Z,7.07
2022-11-27T10:54:07.386Z,5.78
2022-11-27T10:56:52.828Z,7.55
2022-11-27T10:59:23.796Z,6.75
2022-11-27T11:01:53.654Z,7.97
2022-11-27T11:04:43.014Z,6.30
2022-11-27T11:24:05.139Z,6.50
2022-11-27T11:26:34.619Z,6.72
2022-11-27T11:29:04.575Z,7.40
2022-11-27T11:31:34.982Z,6.93
2022-11-27T11:34:05.358Z,6.57
2022-11-27T11:36:32.558Z,6.22
2022-11-27T11:38:59.636Z,7.13
2022-11-27T11:41:37.605Z,6.47
2022-11-27T11:44:04.763Z,6.33
2022-11-27T11:54:17.072Z,5.97
2022-11-27T11:56:52.415Z,6.50
2022-11-27T11:59:31.671Z,5.85
2022-11-27T12:02:28.189Z,5.77
2022-11-27T12:05:10.938Z,6.00
2022-11-27T12:07:52.736Z,6.40
2022-11-27T12:10:24.930Z,6.60
2022-11-27T12:13:03.046Z,5.68
2022-11-27T12:15:35.299Z,5.97
2022-11-27T12:18:09.860Z,5.43
2022-11-27T12:20:47.326Z,6.75
2022-11-27T12:32:00.297Z,5.10
2022-11-27T12:34:40.092Z,6.25
2022-11-27T12:37:21.157Z,6.72
2022-11-27T12:40:02.961Z,6.00
2022-11-27T12:42:34.861Z,5.45
2022-11-27T12:45:06.520Z,5.72
2022-11-27T12:47:40.923Z,5.77
2022-11-27T12:50:16.506Z,5.90
2022-11-27T12:58:57.166Z,5.60
2022-11-27T13:10:26.069Z,5.40
2022-11-27T13:13:01.290Z,5.88
2022-11-27T13:15:32.986Z,5.45
2022-11-27T13:18:04.762Z,5.72
2022-11-27T13:20:37.363Z,6.20
2022-11-27T13:23:04.194Z,6.97
2022-11-27T13:25:39.289Z,5.63
2022-11-27T13:28:07.323Z,5.50
2022-11-27T13:30:37.161Z,6.37
2022-11-27T13:33:06.400Z,5.72
2022-11-27T13:35:40.322Z,7.80
2022-11-27T13:40:40.984Z,6.03
2022-11-27T13:43:20.427Z,6.20
2022-11-27T13:45:48.132Z,6.65
2022-11-27T13:48:28.863Z,7.00
2022-11-27T13:50:56.547Z,6.65
2022-11-27T13:53:30.836Z,6.78
2022-11-27T13:55:59.790Z,7.23
2022-11-27T14:11:14.785Z,7.15
2022-11-27T14:13:46.557Z,7.07
2022-11-27T14:16:25.279Z,7.60
2022-11-27T14:18:54.114Z,7.78
2022-11-27T14:21:28.503Z,6.82
2022-11-27T14:23:55.446Z,7.80
2022-11-27T14:26:25.109Z,8.23
2022-11-27T14:28:55.759Z,8.52
2022-11-27T14:31:27.680Z,7.50
2022-11-27T14:36:42.504Z,6.78
2022-11-27T14:39:21.623Z,6.65
2022-11-27T14:41:56.690Z,8.32
2022-11-27T14:44:25.125Z,6.95
2022-11-27T14:46:52.455Z,7.27
2022-11-27T14:49:21.294Z,6.72
2022-11-27T14:51:51.188Z,7.57
2022-11-27T14:54:25.916Z,6.38
2022-11-27T14:56:53.931Z,7.97
2022-11-27T14:59:23.045Z,8.00
2022-11-27T15:05:20.877Z,7.90
2022-11-27T15:07:50.999Z,6.97
2022-11-27T15:10:27.205Z,7.25
2022-11-27T15:12:54.747Z,7.60
2022-11-27T15:15:23.950Z,6.88
2022-11-27T15:17:56.195Z,7.57
2022-11-27T15:20:26.878Z,6.15
2022-11-27T15:28:37.326Z,7.72
2022-11-27T15:31:23.652Z,7.47
2022-11-27T15:34:00.842Z,6.65
2022-11-27T15:36:35.054Z,7.22
2022-11-27T15:39:21.620Z,6.82
2022-11-27T15:41:54.231Z,7.57
2022-11-27T15:44:21.422Z,7.50
2022-11-27T15:46:48.639Z,7.57
2022-11-27T15:49:16.924Z,6.90
2022-11-27T15:51:43.813Z,8.10
2022-11-27T15:54:10.661Z,7.40
2022-11-27T15:56:37.502Z,6.93
2022-11-27T15:59:04.486Z,7.13
2022-11-27T16:01:31.466Z,7.03
2022-11-27T16:03:58.608Z,7.18
2022-11-27T16:06:26.890Z,7.40
2022-11-27T16:12:06.855Z,7.47
2022-11-27T16:14:33.849Z,7.88
2022-11-27T16:17:01.461Z,6.50
2022-11-27T16:19:28.754Z,8.27
2022-11-27T16:21:57.053Z,7.03
2022-11-27T16:24:23.893Z,7.20
2022-11-27T16:26:50.859Z,6.93
2022-11-27T16:29:17.707Z,7.30
2022-11-27T16:31:44.536Z,6.90
2022-11-27T16:34:11.407Z,7.07
2022-11-27T16:36:40.761Z,6.80
2022-11-27T16:39:08.976Z,6.75
2022-11-27T16:41:35.829Z,6.78
2022-11-27T16:44:09.857Z,7.50
2022-11-27T16:46:38.853Z,7.00
2022-11-27T16:49:09.800Z,7.93
2022-11-27T16:51:39.345Z,7.85
2022-11-27T16:54:10.781Z,6.87
2022-11-27T16:56:38.703Z,6.78
2022-11-27T16:59:08.992Z,7.13
2022-11-27T17:01:36.684Z,6.70
2022-11-27T17:04:04.841Z,7.30
2022-11-27T17:06:33.703Z,6.78
2022-11-27T17:09:03.039Z,6.67
2022-11-27T17:11:33.900Z,7.43
2022-11-27T17:14:02.328Z,7.75
2022-11-27T17:16:29.594Z,6.75
2022-11-27T17:18:56.681Z,7.00
2022-11-27T17:21:27.281Z,6.67
2022-11-27T17:23:55.478Z,7.10
2022-11-27T17:26:23.878Z,6.97
2022-11-27T17:28:55.646Z,6.23
2022-11-27T17:31:24.770Z,7.40
2022-11-27T17:33:52.774Z,6.60
2022-11-27T17:36:19.842Z,6.68
2022-11-27T17:38:46.739Z,5.78
2022-11-27T17:41:14.591Z,6.13
2022-11-27T17:43:42.203Z,7.53
2022-11-27T17:46:13.342Z,6.65
2022-11-27T17:48:40.196Z,6.17
2022-11-27T17:51:07.146Z,6.47
2022-11-27T17:53:34.408Z,6.60
2022-11-27T17:56:04.369Z,6.88
2022-11-27T17:58:31.772Z,6.07
2022-11-27T18:00:59.305Z,5.90
2022-11-27T18:03:28.452Z,6.63
2022-11-27T18:05:55.441Z,5.85
2022-11-27T18:08:22.414Z,5.93
2022-11-27T18:10:49.732Z,6.50
2022-11-27T18:13:16.538Z,7.10
2022-11-27T18:15:44.062Z,6.77
2022-11-27T18:18:10.993Z,7.20
2022-11-27T18:20:39.205Z,6.55
2022-11-27T18:23:06.058Z,6.88
2022-11-27T18:25:32.855Z,7.43
2022-11-27T18:27:59.663Z,5.82
2022-11-27T18:30:26.558Z,7.60
2022-11-27T18:32:53.383Z,6.47
2022-11-27T18:35:20.644Z,6.10
2022-11-27T18:37:48.858Z,7.60
2022-11-27T18:40:15.995Z,7.27
2022-11-27T18:42:42.823Z,7.27
2022-11-27T18:45:31.312Z,6.63
2022-11-27T18:47:57.101Z,8.00
2022-11-27T18:50:29.321Z,7.25
2022-11-27T18:52:57.945Z,6.87
2022-11-27T18:55:24.767Z,6.93
2022-11-27T18:57:51.561Z,7.22
2022-11-27T19:00:19.238Z,7.70
2022-11-27T19:02:46.127Z,7.70
2022-11-27T19:05:12.925Z,8.18
2022-11-27T19:07:39.866Z,7.43
2022-11-27T19:10:09.091Z,7.95
2022-11-27T19:12:35.918Z,7.55
2022-11-27T19:15:02.724Z,7.57
2022-11-27T19:17:32.458Z,7.13
2022-11-27T19:19:59.802Z,7.47
2022-11-27T19:22:26.590Z,7.82
2022-11-27T19:24:53.398Z,7.40
2022-11-27T19:27:21.569Z,7.53
2022-11-27T19:29:49.033Z,7.72
2022-11-27T19:32:15.813Z,7.27
2022-11-27T19:34:42.866Z,7.55
2022-11-27T19:39:49.604Z,7.77
2022-11-27T19:45:03.022Z,7.60
2022-11-27T19:47:29.815Z,8.00
2022-11-27T19:49:56.610Z,8.60
2022-11-27T19:52:23.435Z,7.78
2022-11-27T19:54:50.279Z,7.82
2022-11-27T19:57:17.101Z,8.18
2022-11-27T20:02:48.017Z,8.63
2022-11-27T20:05:14.977Z,8.30
2022-11-27T20:07:41.874Z,8.68
2022-11-27T20:10:09.369Z,8.65
2022-11-27T20:12:38.319Z,8.95
2022-11-27T20:15:08.131Z,8.77
2022-11-27T20:50:29.256Z,8.25
2022-11-27T20:52:57.619Z,8.85
2022-11-27T21:15:16.248Z,8.82
2022-11-27T21:17:44.557Z,9.68
2022-11-27T21:20:12.665Z,9.27
2022-11-27T21:22:42.671Z,9.32
2022-11-27T21:25:09.746Z,9.70
2022-11-27T21:27:37.442Z,7.68
2022-11-27T21:30:04.985Z,9.10
2022-11-27T21:32:31.868Z,9.15
2022-11-27T21:35:00.143Z,10.70
2022-11-27T21:37:27.167Z,8.68
2022-11-27T21:39:54.066Z,9.60
2022-11-27T21:42:20.958Z,9.82
2022-11-27T21:44:47.874Z,9.90
2022-11-27T21:47:14.666Z,8.90
2022-11-27T21:49:41.951Z,10.40
2022-11-27T21:52:10.278Z,9.70
2022-11-27T21:54:37.179Z,10.48
2022-11-27T21:57:04.170Z,10.18
2022-11-27T21:59:31.031Z,9.68
2022-11-27T22:01:57.965Z,9.20
2022-11-27T22:04:25.461Z,9.63
2022-11-27T22:06:52.396Z,10.30
2022-11-27T22:09:20.684Z,10.48
2022-11-27T22:11:47.981Z,10.18
2022-11-27T22:14:16.232Z,10.50
2022-11-27T22:16:45.966Z,11.52
2022-11-27T22:19:14.453Z,11.35
2022-11-27T22:21:41.817Z,11.13
2022-11-27T22:24:13.535Z,12.07
2022-11-27T22:26:46.683Z,11.55
2022-11-27T22:29:13.515Z,11.07
2022-11-27T22:31:40.491Z,10.55
2022-11-27T22:34:07.306Z,11.43
2022-11-27T22:36:35.359Z,11.02
2022-11-27T22:39:05.232Z,10.73
2022-11-27T22:41:36.357Z,12.27
2022-11-27T22:44:06.666Z,11.52
2022-11-27T22:46:35.657Z,10.95
2022-11-27T22:49:05.851Z,11.02
2022-11-27T22:51:34.399Z,10.88
2022-11-27T22:54:01.882Z,12.25
2022-11-27T22:56:28.852Z,11.73
2022-11-27T22:59:17.515Z,11.05
2022-11-27T23:01:44.456Z,12.20
2022-11-27T23:04:11.463Z,10.95
2022-11-27T23:06:38.348Z,10.53
2022-11-27T23:09:05.375Z,12.15
2022-11-27T23:11:32.221Z,10.85
2022-11-27T23:13:59.076Z,11.40
2022-11-27T23:16:26.341Z,11.05
2022-11-27T23:18:54.721Z,11.57
2022-11-27T23:21:23.490Z,11.90
2022-11-27T23:23:50.713Z,11.20
2022-11-27T23:26:21.143Z,10.80
2022-11-27T23:28:48.979Z,10.98
2022-11-27T23:31:33.618Z,10.90
2022-11-27T23:34:04.285Z,11.15
2022-11-27T23:36:32.142Z,11.27
2022-11-27T23:39:00.719Z,13.10
2022-11-27T23:41:28.127Z,12.80
2022-11-27T23:43:55.243Z,12.45
2022-11-27T23:46:25.436Z,11.13
2022-11-27T23:48:54.414Z,12.38
2022-11-27T23:51:24.792Z,11.60
2022-11-27T23:53:52.600Z,12.32
2022-11-27T23:56:21.993Z,11.48
2022-11-27T23:58:49.435Z,12.38
